createdAt,value
2018-03-23T00:01:49.982Z,73.31
2018-03-23T00:05:13.258Z,72.87
2018-03-23T00:08:36.631Z,72.68
2018-03-23T00:11:59.917Z,73.29
2018-03-23T00:15:23.182Z,73.00
2018-03-23T00:18:46.520Z,73.25
2018-03-23T00:22:09.835Z,72.71
2018-03-23T00:25:33.123Z,72.69
2018-03-23T00:28:56.396Z,71.97
2018-03-23T00:32:19.664Z,73.36
2018-03-23T00:35:43.694Z,72.88
2018-03-23T00:39:06.974Z,72.80
2018-03-23T00:42:30.260Z,71.95
2018-03-23T00:45:53.539Z,71.46
2018-03-23T00:49:16.850Z,73.11
2018-03-23T00:52:40.129Z,73.07
2018-03-23T00:56:03.398Z,72.68
2018-03-23T00:59:26.689Z,72.74
2018-03-23T01:02:49.970Z,72.80
2018-03-23T01:06:13.243Z,72.98
2018-03-23T01:09:36.530Z,72.00
2018-03-23T01:12:59.834Z,73.08
2018-03-23T01:16:23.137Z,71.92
2018-03-23T01:19:46.470Z,72.64
2018-03-23T01:23:09.744Z,72.19
2018-03-23T01:26:33.016Z,72.11
2018-03-23T01:29:57.118Z,72.24
2018-03-23T01:33:21.208Z,72.41
2018-03-23T01:36:44.474Z,72.59
2018-03-23T01:40:07.774Z,72.44
2018-03-23T01:43:31.067Z,72.58
2018-03-23T01:46:54.386Z,72.57
2018-03-23T01:50:18.431Z,71.51
2018-03-23T01:53:45.596Z,71.00
2018-03-23T01:57:08.919Z,71.38
2018-03-23T02:00:32.199Z,71.03
2018-03-23T02:03:55.530Z,71.46
2018-03-23T02:07:18.853Z,71.27
2018-03-23T02:10:42.193Z,70.64
2018-03-23T02:14:06.289Z,70.82
2018-03-23T02:17:29.562Z,70.22
2018-03-23T02:20:52.854Z,70.61
2018-03-23T02:24:16.125Z,70.97
2018-03-23T02:27:39.398Z,71.14
2018-03-23T02:31:03.505Z,71.18
2018-03-23T02:34:26.789Z,70.84
2018-03-23T02:37:50.087Z,70.25
2018-03-23T02:41:13.351Z,70.93
2018-03-23T02:44:36.646Z,71.33
2018-03-23T02:47:59.931Z,69.91
2018-03-23T02:51:23.213Z,69.40
2018-03-23T02:54:46.511Z,70.43
2018-03-23T02:58:09.768Z,70.78
2018-03-23T03:01:33.958Z,70.43
2018-03-23T03:04:57.298Z,69.13
2018-03-23T03:08:20.575Z,69.70
2018-03-23T03:11:43.864Z,70.35
2018-03-23T03:15:07.145Z,70.15
2018-03-23T03:18:30.430Z,70.25
2018-03-23T03:21:53.722Z,70.36
2018-03-23T03:25:17.026Z,70.85
2018-03-23T03:28:40.348Z,70.61
2018-03-23T03:32:03.703Z,71.40
2018-03-23T03:35:27.003Z,71.08
2018-03-23T03:38:50.286Z,70.14
2018-03-23T03:42:13.568Z,70.50
2018-03-23T03:45:36.834Z,70.39
2018-03-23T03:49:00.141Z,71.02
2018-03-23T03:52:23.420Z,70.63
2018-03-23T03:55:46.689Z,71.28
2018-03-23T03:59:10.001Z,71.41
2018-03-23T04:02:33.258Z,70.54
2018-03-23T04:05:56.561Z,69.87
2018-03-23T04:09:19.843Z,70.49
2018-03-23T04:12:43.129Z,70.25
2018-03-23T04:16:06.416Z,69.02
2018-03-23T04:19:29.719Z,69.62
2018-03-23T04:22:52.986Z,70.02
2018-03-23T04:26:16.252Z,69.18
2018-03-23T04:29:39.540Z,69.69
2018-03-23T04:33:02.829Z,70.30
2018-03-23T04:36:26.109Z,70.34
2018-03-23T04:39:49.412Z,70.26
2018-03-23T04:43:12.674Z,69.57
2018-03-23T04:46:35.953Z,69.40
2018-03-23T04:50:00.045Z,69.45
2018-03-23T04:53:23.326Z,69.87
2018-03-23T04:56:46.616Z,70.00
2018-03-23T05:00:09.900Z,70.81
2018-03-23T05:03:33.181Z,70.46
2018-03-23T05:06:56.477Z,71.30
2018-03-23T05:10:19.751Z,70.67
2018-03-23T05:13:43.027Z,70.30
2018-03-23T05:17:07.332Z,69.90
2018-03-23T05:20:30.651Z,71.54
2018-03-23T05:23:53.983Z,69.99
2018-03-23T05:27:18.138Z,70.17
2018-03-23T05:30:42.224Z,70.19
2018-03-23T05:34:05.496Z,70.46
2018-03-23T05:37:28.797Z,69.86
2018-03-23T05:40:52.882Z,70.81
2018-03-23T05:44:16.176Z,69.40
2018-03-23T05:47:39.554Z,69.37
2018-03-23T05:51:03.604Z,69.15
2018-03-23T05:54:26.900Z,69.34
2018-03-23T05:57:50.538Z,69.66
2018-03-23T06:01:13.840Z,69.78
2018-03-23T06:04:37.192Z,69.56
2018-03-23T06:08:00.496Z,69.72
2018-03-23T06:11:23.843Z,69.60
2018-03-23T06:14:47.186Z,69.79
2018-03-23T06:18:10.460Z,70.46
2018-03-23T06:21:33.744Z,70.27
2018-03-23T06:24:57.032Z,70.80
2018-03-23T06:28:20.304Z,71.43
2018-03-23T06:31:43.793Z,71.34
2018-03-23T06:35:07.922Z,71.69
2018-03-23T06:38:31.272Z,71.98
2018-03-23T06:41:54.543Z,71.41
2018-03-23T06:45:17.828Z,72.14
2018-03-23T06:48:41.095Z,71.47
2018-03-23T06:52:04.385Z,72.34
2018-03-23T06:55:27.694Z,71.99
2018-03-23T06:58:50.962Z,70.98
2018-03-23T07:02:14.243Z,69.92
2018-03-23T07:05:37.504Z,69.35
2018-03-23T07:09:01.528Z,67.49
2018-03-23T07:12:24.830Z,67.32
2018-03-23T07:15:48.105Z,67.04
2018-03-23T07:19:11.382Z,67.08
2018-03-23T07:22:34.691Z,67.24
2018-03-23T07:25:57.974Z,67.22
2018-03-23T07:29:21.234Z,66.52
2018-03-23T07:32:44.500Z,67.58
2018-03-23T07:36:08.560Z,67.71
2018-03-23T07:39:31.856Z,67.95
2018-03-23T07:42:55.137Z,67.29
2018-03-23T07:46:18.439Z,67.25
2018-03-23T07:49:42.499Z,67.52
2018-03-23T07:53:05.770Z,67.20
2018-03-23T07:56:29.044Z,66.68
2018-03-23T07:59:52.311Z,66.07
2018-03-23T08:03:16.333Z,65.46
2018-03-23T08:06:39.654Z,64.42
2018-03-23T08:10:02.923Z,65.32
2018-03-23T08:13:26.339Z,64.46
2018-03-23T08:16:49.632Z,62.27
2018-03-23T08:20:12.892Z,63.10
2018-03-23T08:23:36.915Z,62.54
2018-03-23T08:27:00.183Z,62.51
2018-03-23T08:30:24.203Z,61.39
2018-03-23T08:33:47.489Z,60.79
2018-03-23T08:37:10.770Z,61.10
2018-03-23T08:40:34.905Z,61.70
2018-03-23T08:43:58.920Z,61.44
2018-03-23T08:47:22.971Z,61.28
2018-03-23T08:50:46.330Z,60.81
2018-03-23T08:54:09.612Z,60.33
2018-03-23T08:57:32.880Z,60.36
2018-03-23T09:00:56.154Z,61.93
2018-03-23T09:04:19.426Z,60.65
2018-03-23T09:07:43.474Z,61.22
2018-03-23T09:11:06.738Z,60.93
2018-03-23T09:14:30.741Z,61.28
2018-03-23T09:17:54.862Z,60.27
2018-03-23T09:21:18.246Z,60.28
2018-03-23T09:24:41.603Z,59.68
2018-03-23T09:28:05.024Z,59.80
2018-03-23T09:31:28.396Z,58.95
2018-03-23T09:34:52.445Z,59.62
2018-03-23T09:38:15.723Z,59.74
2018-03-23T09:41:38.997Z,61.05
2018-03-23T09:45:02.273Z,60.62
2018-03-23T09:48:25.553Z,60.07
2018-03-23T09:51:49.819Z,59.66
2018-03-23T09:55:13.116Z,59.58
2018-03-23T09:58:36.407Z,59.62
2018-03-23T10:02:00.439Z,58.92
2018-03-23T10:05:23.754Z,59.51
2018-03-23T10:08:47.220Z,59.27
2018-03-23T10:12:11.402Z,58.06
2018-03-23T10:15:35.377Z,58.68
2018-03-23T10:18:59.547Z,57.78
2018-03-23T10:22:25.039Z,57.81
2018-03-23T10:25:49.671Z,58.08
2018-03-23T10:29:16.061Z,58.47
2018-03-23T10:32:40.039Z,57.13
2018-03-23T10:36:04.034Z,56.11
2018-03-23T10:39:28.090Z,55.44
2018-03-23T10:42:51.372Z,54.95
2018-03-23T10:46:14.639Z,55.25
2018-03-23T10:49:37.912Z,54.04
2018-03-23T10:53:01.236Z,52.38
2018-03-23T10:56:26.118Z,52.79
2018-03-23T10:59:49.850Z,52.17
2018-03-23T11:03:13.939Z,48.31
2018-03-23T11:06:38.770Z,49.13
2018-03-23T11:10:02.422Z,50.27
2018-03-23T11:13:25.979Z,49.12
2018-03-23T11:16:50.030Z,48.61
2018-03-23T11:20:13.440Z,47.17
2018-03-23T11:23:39.816Z,46.17
2018-03-23T11:27:03.960Z,44.93
2018-03-23T11:30:27.256Z,44.52
2018-03-23T11:33:52.579Z,45.31
2018-03-23T11:37:17.595Z,46.51
2018-03-23T11:40:40.983Z,46.38
2018-03-23T11:44:04.422Z,45.68
2018-03-23T11:51:06.701Z,43.86
2018-03-23T11:54:30.065Z,45.16
2018-03-23T11:57:53.573Z,44.39
2018-03-23T12:01:16.875Z,44.67
2018-03-23T12:04:40.190Z,44.41
2018-03-23T12:08:03.524Z,45.83
2018-03-23T12:11:27.808Z,45.81
2018-03-23T12:14:51.138Z,46.72
2018-03-23T12:18:14.436Z,47.65
2018-03-23T12:21:37.747Z,46.65
2018-03-23T12:25:01.860Z,44.85
2018-03-23T12:28:25.256Z,43.82
2018-03-23T12:31:48.577Z,45.11
2018-03-23T12:35:11.873Z,46.47
2018-03-23T12:38:35.198Z,46.84
2018-03-23T12:41:59.266Z,46.93
2018-03-23T12:45:23.348Z,47.77
2018-03-23T12:48:46.763Z,47.98
2018-03-23T12:52:10.101Z,46.64
2018-03-23T12:55:33.414Z,45.22
2018-03-23T12:58:56.738Z,43.04
2018-03-23T13:02:20.068Z,41.90
2018-03-23T13:05:43.423Z,39.82
2018-03-23T13:09:06.722Z,39.16
2018-03-23T13:12:30.059Z,40.12
2018-03-23T13:15:53.395Z,42.33
2018-03-23T13:19:16.757Z,43.76
2018-03-23T13:22:40.111Z,43.78
2018-03-23T13:26:03.370Z,40.15
2018-03-23T13:29:26.647Z,40.79
2018-03-23T13:32:50.696Z,40.55
2018-03-23T13:36:13.981Z,40.97
2018-03-23T13:39:37.323Z,41.03
2018-03-23T13:43:00.620Z,41.48
2018-03-23T13:46:23.946Z,42.55
2018-03-23T13:49:47.395Z,41.65
2018-03-23T13:53:10.717Z,40.54
2018-03-23T13:56:34.772Z,37.58
2018-03-23T13:59:58.924Z,35.62
2018-03-23T14:03:22.279Z,36.12
2018-03-23T14:06:45.556Z,37.21
2018-03-23T14:10:08.863Z,36.74
2018-03-23T14:13:32.136Z,35.37
2018-03-23T14:16:55.511Z,34.85
2018-03-23T14:20:18.871Z,35.76
2018-03-23T14:23:42.911Z,38.39
2018-03-23T14:27:06.192Z,39.03
2018-03-23T14:30:29.497Z,38.79
2018-03-23T14:33:52.789Z,39.24
2018-03-23T14:37:16.076Z,39.58
2018-03-23T14:40:39.350Z,38.39
2018-03-23T14:44:02.621Z,38.13
2018-03-23T14:47:26.854Z,38.51
2018-03-23T14:50:50.177Z,37.82
2018-03-23T14:54:13.458Z,37.17
2018-03-23T14:57:36.734Z,37.48
2018-03-23T15:01:00.020Z,37.32
2018-03-23T15:04:23.319Z,36.95
2018-03-23T15:07:47.350Z,36.76
2018-03-23T15:11:10.634Z,36.34
2018-03-23T15:14:33.931Z,35.10
2018-03-23T15:17:57.203Z,33.66
2018-03-23T15:21:20.476Z,35.80
2018-03-23T15:24:44.523Z,36.59
2018-03-23T15:28:07.786Z,34.64
2018-03-23T15:31:31.073Z,33.50
2018-03-23T15:34:54.416Z,34.19
2018-03-23T15:38:18.449Z,34.76
2018-03-23T15:41:41.843Z,35.90
2018-03-23T15:45:05.127Z,36.03
2018-03-23T15:48:29.256Z,35.90
2018-03-23T15:51:52.619Z,35.14
2018-03-23T15:55:15.921Z,35.82
2018-03-23T15:58:39.187Z,37.62
2018-03-23T16:02:02.484Z,36.89
2018-03-23T16:05:25.893Z,36.73
2018-03-23T16:08:49.183Z,36.27
2018-03-23T16:12:12.519Z,34.96
2018-03-23T16:15:35.899Z,35.18
2018-03-23T16:18:59.192Z,34.85
2018-03-23T16:22:22.451Z,35.22
2018-03-23T16:25:45.748Z,35.80
2018-03-23T16:29:09.005Z,35.66
2018-03-23T16:32:32.311Z,35.07
2018-03-23T16:35:55.705Z,34.76
2018-03-23T16:39:20.006Z,34.38
2018-03-23T16:42:45.278Z,34.98
2018-03-23T16:46:08.712Z,35.63
2018-03-23T16:49:32.276Z,37.44
2018-03-23T16:52:55.818Z,38.91
2018-03-23T16:56:19.330Z,40.00
2018-03-23T16:59:43.457Z,40.51
2018-03-23T17:03:07.156Z,42.86
2018-03-23T17:06:30.630Z,44.02
2018-03-23T17:09:54.861Z,44.52
2018-03-23T17:13:19.556Z,44.36
2018-03-23T17:16:43.338Z,44.69
2018-03-23T17:20:08.154Z,44.74
2018-03-23T17:23:32.097Z,45.37
2018-03-23T17:26:55.681Z,45.67
2018-03-23T17:30:19.177Z,45.18
2018-03-23T17:33:42.598Z,44.51
2018-03-23T17:37:08.949Z,44.76
2018-03-23T17:40:33.233Z,45.11
2018-03-23T17:43:58.784Z,45.54
2018-03-23T17:47:22.438Z,45.48
2018-03-23T17:50:45.930Z,46.22
2018-03-23T17:54:09.472Z,46.43
2018-03-23T17:57:33.110Z,47.61
2018-03-23T18:00:56.533Z,48.11
2018-03-23T18:04:19.984Z,49.26
2018-03-23T18:07:43.306Z,49.40
2018-03-23T18:11:06.639Z,50.01
2018-03-23T18:14:30.708Z,50.39
2018-03-23T18:17:54.015Z,51.33
2018-03-23T18:21:18.095Z,52.44
2018-03-23T18:24:43.238Z,52.70
2018-03-23T18:28:06.871Z,52.00
2018-03-23T18:31:31.003Z,50.21
2018-03-23T18:34:55.157Z,51.52
2018-03-23T18:38:18.608Z,50.45
2018-03-23T18:41:41.929Z,52.16
2018-03-23T18:45:05.283Z,52.50
2018-03-23T18:48:28.651Z,52.51
2018-03-23T18:51:52.035Z,52.19
2018-03-23T18:55:15.460Z,54.52
2018-03-23T18:58:39.548Z,53.83
2018-03-23T19:02:02.866Z,53.89
2018-03-23T19:05:26.300Z,54.30
2018-03-23T19:08:49.803Z,55.39
2018-03-23T19:12:15.105Z,56.21
2018-03-23T19:15:38.466Z,56.16
2018-03-23T19:19:01.772Z,56.61
2018-03-23T19:22:26.367Z,57.27
2018-03-23T19:25:49.685Z,57.54
2018-03-23T19:29:13.803Z,58.23
2018-03-23T19:32:37.391Z,58.45
2018-03-23T19:36:01.507Z,58.88
2018-03-23T19:39:24.991Z,59.02
2018-03-23T19:42:48.301Z,59.05
2018-03-23T19:46:11.616Z,58.99
2018-03-23T19:49:35.803Z,63.63
2018-03-23T19:52:59.235Z,60.18
2018-03-23T19:56:22.607Z,59.87
2018-03-23T19:59:45.953Z,60.14
2018-03-23T20:03:09.544Z,62.56
2018-03-23T20:06:33.945Z,61.95
2018-03-23T20:09:58.608Z,61.85
2018-03-23T20:13:22.827Z,61.10
2018-03-23T20:16:46.376Z,61.03
2018-03-23T20:20:15.159Z,61.74
2018-03-23T20:23:38.461Z,62.19
2018-03-23T20:30:59.639Z,63.31
2018-03-23T20:34:24.136Z,63.67
2018-03-23T20:37:48.285Z,64.00
2018-03-23T20:41:12.645Z,64.07
2018-03-23T20:44:39.506Z,64.52
2018-03-23T20:48:03.655Z,64.41
2018-03-23T20:51:31.336Z,64.84
2018-03-23T20:54:54.634Z,65.00
2018-03-23T20:58:17.916Z,65.02
2018-03-23T21:01:41.383Z,65.40
2018-03-23T21:05:05.524Z,66.02
2018-03-23T21:08:29.593Z,65.94
2018-03-23T21:11:53.244Z,66.05
2018-03-23T21:15:16.771Z,66.34
2018-03-23T21:18:40.313Z,66.01
2018-03-23T21:22:03.595Z,65.97
2018-03-23T21:25:26.934Z,66.36
2018-03-23T21:28:50.375Z,66.94
2018-03-23T21:32:13.731Z,67.33
2018-03-23T21:35:37.231Z,67.25
2018-03-23T21:39:00.575Z,67.90
2018-03-23T21:42:23.887Z,67.82
2018-03-23T21:45:47.147Z,68.16
2018-03-23T21:49:10.447Z,68.50
2018-03-23T21:52:33.808Z,68.30
2018-03-23T21:55:57.157Z,67.96
2018-03-23T21:59:20.539Z,67.90
2018-03-23T22:02:44.669Z,68.36
2018-03-23T22:06:08.029Z,68.66
2018-03-23T22:09:31.481Z,68.36
2018-03-23T22:12:55.607Z,68.91
2018-03-23T22:16:18.946Z,68.99
2018-03-23T22:19:42.219Z,68.98
2018-03-23T22:23:06.312Z,69.02
2018-03-23T22:26:30.358Z,69.10
2018-03-23T22:29:53.625Z,69.21
2018-03-23T22:33:17.524Z,69.20
2018-03-23T22:36:41.859Z,69.12
2018-03-23T22:40:06.485Z,69.36
2018-03-23T22:43:29.930Z,69.73
2018-03-23T22:46:53.321Z,70.37
2018-03-23T22:50:16.727Z,70.59
2018-03-23T22:53:40.991Z,70.41
2018-03-23T22:57:05.069Z,70.83
2018-03-23T23:00:28.552Z,70.99
2018-03-23T23:03:52.649Z,70.73
2018-03-23T23:07:16.237Z,70.61
2018-03-23T23:10:39.492Z,70.90
2018-03-23T23:14:03.601Z,70.94
2018-03-23T23:17:26.886Z,70.93
2018-03-23T23:20:50.152Z,71.33
2018-03-23T23:24:13.644Z,71.51
2018-03-23T23:27:37.775Z,71.38
2018-03-23T23:31:01.082Z,71.44
2018-03-23T23:34:25.334Z,71.55
2018-03-23T23:37:48.687Z,71.94
2018-03-23T23:41:11.998Z,72.10
2018-03-23T23:44:35.319Z,72.37
2018-03-23T23:47:58.626Z,72.30
2018-03-23T23:51:21.879Z,72.28
2018-03-23T23:54:45.939Z,71.69
2018-03-23T23:58:09.270Z,71.98
